createdAt,value
2017-03-29T00:00:17.173Z,9.48
2017-03-29T00:01:17.203Z,9.48
2017-03-29T00:02:17.151Z,9.46
2017-03-29T00:03:17.144Z,9.4
2017-03-29T00:04:17.136Z,9.35
2017-03-29T00:05:17.131Z,9.36
2017-03-29T00:06:17.159Z,9.36
2017-03-29T00:07:17.108Z,9.35
2017-03-29T00:08:17.101Z,9.32
2017-03-29T00:09:17.096Z,9.31
2017-03-29T00:10:17.083Z,9.29
2017-03-29T00:11:17.074Z,9.33
2017-03-29T00:12:17.068Z,9.28
2017-03-29T00:13:17.055Z,9.14
2017-03-29T00:14:17.049Z,9.2
2017-03-29T00:15:17.043Z,9.17
2017-03-29T00:16:17.031Z,9.15
2017-03-29T00:17:17.027Z,9.11
2017-03-29T00:18:17.015Z,9.08
2017-03-29T00:19:17.005Z,9.14
2017-03-29T00:20:16.998Z,9.13
2017-03-29T00:21:16.990Z,9.1
2017-03-29T00:22:16.992Z,9.05
2017-03-29T00:23:16.970Z,9.02
2017-03-29T00:24:16.963Z,9.02
2017-03-29T00:25:16.952Z,9.02
2017-03-29T00:26:16.950Z,9.05
2017-03-29T00:27:16.943Z,8.99
2017-03-29T00:28:16.925Z,9.02
2017-03-29T00:29:16.917Z,9.02
2017-03-29T00:30:16.907Z,8.96
2017-03-29T00:31:16.901Z,8.99
2017-03-29T00:32:16.892Z,8.92
2017-03-29T00:33:16.881Z,8.92
2017-03-29T00:34:16.873Z,8.95
2017-03-29T00:35:16.866Z,8.84
2017-03-29T00:36:16.855Z,8.83
2017-03-29T00:37:16.849Z,8.81
2017-03-29T00:38:16.837Z,8.8
2017-03-29T00:39:16.828Z,8.81
2017-03-29T00:40:16.820Z,8.77
2017-03-29T00:41:16.810Z,8.77
2017-03-29T00:42:16.801Z,8.74
2017-03-29T00:43:16.792Z,8.68
2017-03-29T00:44:16.786Z,8.81
2017-03-29T00:45:16.778Z,8.73
2017-03-29T00:46:16.765Z,8.71
2017-03-29T00:47:16.758Z,8.7
2017-03-29T00:48:16.442Z,8.74
2017-03-29T00:49:16.738Z,8.73
2017-03-29T00:50:16.430Z,8.68
2017-03-29T00:51:16.724Z,8.73
2017-03-29T00:52:16.711Z,8.77
2017-03-29T00:53:16.701Z,8.77
2017-03-29T00:54:16.696Z,8.7
2017-03-29T00:55:16.719Z,8.71
2017-03-29T00:56:16.375Z,8.73
2017-03-29T00:57:16.666Z,8.76
2017-03-29T00:58:16.658Z,8.7
2017-03-29T00:59:16.649Z,8.73
2017-03-29T01:00:16.335Z,8.71
2017-03-29T01:01:16.631Z,8.63
2017-03-29T01:02:16.619Z,8.71
2017-03-29T01:03:16.610Z,8.71
2017-03-29T01:04:16.902Z,8.66
2017-03-29T01:05:16.593Z,8.66
2017-03-29T01:06:16.585Z,8.61
2017-03-29T01:07:16.576Z,8.68
2017-03-29T01:08:16.564Z,8.55
2017-03-29T01:09:16.561Z,8.63
2017-03-29T01:10:16.244Z,8.61
2017-03-29T01:11:16.542Z,8.56
2017-03-29T01:12:16.528Z,8.53
2017-03-29T01:13:16.523Z,8.53
2017-03-29T01:14:16.512Z,8.5
2017-03-29T01:15:16.502Z,8.5
2017-03-29T01:16:16.491Z,8.43
2017-03-29T01:17:16.492Z,8.47
2017-03-29T01:18:16.476Z,8.45
2017-03-29T01:19:16.466Z,8.43
2017-03-29T01:20:16.458Z,8.48
2017-03-29T01:21:16.447Z,8.43
2017-03-29T01:22:16.440Z,8.41
2017-03-29T01:23:16.426Z,8.45
2017-03-29T01:24:16.418Z,8.38
2017-03-29T01:25:16.413Z,8.41
2017-03-29T01:26:16.399Z,8.36
2017-03-29T01:27:16.392Z,8.43
2017-03-29T01:28:16.382Z,8.48
2017-03-29T01:29:16.374Z,8.41
2017-03-29T01:30:16.363Z,8.36
2017-03-29T01:31:16.353Z,8.37
2017-03-29T01:32:16.344Z,8.38
2017-03-29T01:33:16.335Z,8.33
2017-03-29T01:34:16.323Z,8.34
2017-03-29T01:35:16.318Z,8.36
2017-03-29T01:36:16.305Z,8.29
2017-03-29T01:37:16.300Z,8.33
2017-03-29T01:38:16.287Z,8.33
2017-03-29T01:39:16.277Z,8.33
2017-03-29T01:40:16.267Z,8.3
2017-03-29T01:41:16.258Z,8.23
2017-03-29T01:42:16.255Z,8.26
2017-03-29T01:43:15.943Z,8.26
2017-03-29T01:44:16.231Z,8.25
2017-03-29T01:45:16.224Z,8.22
2017-03-29T01:46:16.214Z,8.11
2017-03-29T01:47:16.202Z,8.16
2017-03-29T01:48:16.191Z,8.1
2017-03-29T01:49:16.217Z,8.15
2017-03-29T01:50:16.178Z,8.11
2017-03-29T01:51:16.167Z,8.18
2017-03-29T01:52:16.158Z,8.18
2017-03-29T01:53:16.144Z,8.18
2017-03-29T01:54:16.136Z,8.12
2017-03-29T01:55:16.135Z,8.15
2017-03-29T01:56:16.119Z,8.15
2017-03-29T01:57:16.108Z,8.11
2017-03-29T01:58:16.103Z,8.15
2017-03-29T01:59:16.091Z,8.08
2017-03-29T02:00:16.079Z,8.16
2017-03-29T02:01:16.073Z,8.15
2017-03-29T02:02:15.765Z,8.18
2017-03-29T02:03:16.054Z,8.18
2017-03-29T02:04:16.043Z,8.15
2017-03-29T02:05:16.033Z,8.11
2017-03-29T02:06:16.022Z,8.08
2017-03-29T02:07:16.011Z,8.02
2017-03-29T02:08:16.003Z,8
2017-03-29T02:09:15.997Z,8.16
2017-03-29T02:10:15.984Z,8.18
2017-03-29T02:11:15.973Z,8.04
2017-03-29T02:12:15.964Z,8.01
2017-03-29T02:13:15.956Z,8.02
2017-03-29T02:14:15.946Z,8.05
2017-03-29T02:15:15.938Z,8.04
2017-03-29T02:16:15.928Z,8.02
2017-03-29T02:17:15.918Z,8.01
2017-03-29T02:18:15.908Z,8.02
2017-03-29T02:19:15.896Z,8.05
2017-03-29T02:20:15.891Z,8.07
2017-03-29T02:21:15.879Z,8.02
2017-03-29T02:22:15.868Z,7.95
2017-03-29T02:23:15.860Z,8
2017-03-29T02:24:15.849Z,7.97
2017-03-29T02:25:15.840Z,7.97
2017-03-29T02:26:15.831Z,7.98
2017-03-29T02:27:15.821Z,7.98
2017-03-29T02:28:15.812Z,7.92
2017-03-29T02:29:15.805Z,8
2017-03-29T02:30:15.794Z,8
2017-03-29T02:31:15.787Z,7.93
2017-03-29T02:32:15.775Z,7.97
2017-03-29T02:33:15.771Z,7.95
2017-03-29T02:34:15.758Z,8.01
2017-03-29T02:35:15.746Z,8.02
2017-03-29T02:36:15.740Z,7.93
2017-03-29T02:37:15.726Z,7.92
2017-03-29T02:38:15.717Z,8.02
2017-03-29T02:39:15.704Z,8.04
2017-03-29T02:40:15.700Z,8.02
2017-03-29T02:41:15.695Z,8.05
2017-03-29T02:42:15.679Z,8
2017-03-29T02:43:15.667Z,8.02
2017-03-29T02:44:15.657Z,8.02
2017-03-29T02:45:15.649Z,8.01
2017-03-29T02:46:15.639Z,7.97
2017-03-29T02:47:15.325Z,8
2017-03-29T02:48:15.622Z,8.02
2017-03-29T02:49:15.610Z,8.01
2017-03-29T02:50:15.598Z,8.08
2017-03-29T02:51:15.590Z,8
2017-03-29T02:52:15.579Z,8.05
2017-03-29T02:53:15.570Z,8.04
2017-03-29T02:54:15.560Z,8.02
2017-03-29T02:55:15.552Z,8.07
2017-03-29T02:56:15.543Z,8.05
2017-03-29T02:57:15.534Z,8.05
2017-03-29T02:58:15.218Z,7.95
2017-03-29T02:59:15.512Z,7.95
2017-03-29T03:00:15.503Z,7.95
2017-03-29T03:01:15.494Z,7.93
2017-03-29T03:02:15.488Z,7.89
2017-03-29T03:03:15.475Z,7.89
2017-03-29T03:04:15.464Z,7.93
2017-03-29T03:05:15.461Z,7.82
2017-03-29T03:06:15.445Z,7.87
2017-03-29T03:07:15.435Z,7.85
2017-03-29T03:08:15.426Z,7.86
2017-03-29T03:09:15.111Z,7.87
2017-03-29T03:10:15.407Z,7.75
2017-03-29T03:11:15.400Z,7.77
2017-03-29T03:12:15.385Z,7.83
2017-03-29T03:13:15.375Z,7.82
2017-03-29T03:14:15.366Z,7.79
2017-03-29T03:15:15.358Z,7.77
2017-03-29T03:16:15.351Z,7.87
2017-03-29T03:17:15.339Z,7.87
2017-03-29T03:18:15.331Z,7.77
2017-03-29T03:19:15.318Z,7.77
2017-03-29T03:20:15.308Z,7.75
2017-03-29T03:21:15.300Z,7.82
2017-03-29T03:22:15.290Z,7.82
2017-03-29T03:23:15.278Z,7.79
2017-03-29T03:24:15.267Z,7.72
2017-03-29T03:25:15.263Z,7.68
2017-03-29T03:26:15.249Z,7.74
2017-03-29T03:27:15.239Z,7.79
2017-03-29T03:28:15.233Z,7.77
2017-03-29T03:29:15.224Z,7.74
2017-03-29T03:30:15.213Z,7.67
2017-03-29T03:31:15.203Z,7.69
2017-03-29T03:32:15.193Z,7.68
2017-03-29T03:33:15.183Z,7.67
2017-03-29T03:34:15.170Z,7.64
2017-03-29T03:35:15.162Z,7.69
2017-03-29T03:36:15.152Z,7.67
2017-03-29T03:37:15.142Z,7.69
2017-03-29T03:38:15.133Z,7.63
2017-03-29T03:39:14.819Z,7.64
2017-03-29T03:40:15.111Z,7.64
2017-03-29T03:41:15.102Z,7.68
2017-03-29T03:42:15.093Z,7.75
2017-03-29T03:43:15.081Z,7.67
2017-03-29T03:44:15.073Z,7.69
2017-03-29T03:45:14.759Z,7.75
2017-03-29T03:46:15.056Z,7.63
2017-03-29T03:47:15.044Z,7.74
2017-03-29T03:48:15.032Z,7.68
2017-03-29T03:49:15.032Z,7.69
2017-03-29T03:50:15.012Z,7.79
2017-03-29T03:51:15.004Z,7.69
2017-03-29T03:52:14.994Z,7.72
2017-03-29T03:53:14.984Z,7.74
2017-03-29T03:54:14.975Z,7.72
2017-03-29T03:55:14.972Z,7.77
2017-03-29T03:56:14.953Z,7.75
2017-03-29T03:57:14.946Z,7.74
2017-03-29T03:58:14.934Z,7.68
2017-03-29T03:59:14.924Z,7.77
2017-03-29T04:00:14.916Z,7.72
2017-03-29T04:01:14.904Z,7.72
2017-03-29T04:02:14.896Z,7.74
2017-03-29T04:03:14.885Z,7.72
2017-03-29T04:04:14.875Z,7.74
2017-03-29T04:05:14.869Z,7.75
2017-03-29T04:06:14.860Z,7.75
2017-03-29T04:07:14.846Z,7.82
2017-03-29T04:08:14.835Z,7.74
2017-03-29T04:09:14.827Z,7.8
2017-03-29T04:10:14.818Z,7.77
2017-03-29T04:11:14.805Z,7.75
2017-03-29T04:12:14.797Z,7.82
2017-03-29T04:13:14.786Z,7.77
2017-03-29T04:14:14.474Z,7.75
2017-03-29T04:15:14.767Z,7.83
2017-03-29T04:16:14.757Z,7.82
2017-03-29T04:17:14.748Z,7.75
2017-03-29T04:18:14.738Z,7.8
2017-03-29T04:19:14.727Z,7.83
2017-03-29T04:20:14.717Z,7.74
2017-03-29T04:21:14.708Z,7.79
2017-03-29T04:22:14.697Z,7.77
2017-03-29T04:23:14.687Z,7.75
2017-03-29T04:24:14.707Z,7.79
2017-03-29T04:25:14.668Z,7.82
2017-03-29T04:26:14.658Z,7.85
2017-03-29T04:27:14.649Z,7.85
2017-03-29T04:28:14.638Z,7.86
2017-03-29T04:29:14.629Z,7.87
2017-03-29T04:30:14.316Z,7.85
2017-03-29T04:31:14.306Z,7.97
2017-03-29T04:32:14.602Z,7.98
2017-03-29T04:33:14.589Z,8
2017-03-29T04:34:14.578Z,7.93
2017-03-29T04:35:14.570Z,7.98
2017-03-29T04:36:14.567Z,8
2017-03-29T04:37:14.550Z,8.05
2017-03-29T04:38:14.540Z,8.02
2017-03-29T04:39:14.530Z,8.01
2017-03-29T04:40:14.526Z,8.15
2017-03-29T04:41:14.515Z,8.18
2017-03-29T04:42:14.503Z,8.05
2017-03-29T04:43:14.492Z,8.18
2017-03-29T04:44:14.481Z,8.1
2017-03-29T04:45:14.472Z,8.28
2017-03-29T04:46:14.161Z,8.25
2017-03-29T04:47:14.462Z,8.36
2017-03-29T04:48:14.141Z,8.29
2017-03-29T04:49:14.435Z,8.48
2017-03-29T04:50:14.426Z,8.44
2017-03-29T04:51:14.111Z,8.48
2017-03-29T04:52:14.405Z,8.44
2017-03-29T04:53:14.395Z,8.47
2017-03-29T04:54:14.388Z,8.55
2017-03-29T04:55:14.375Z,8.53
2017-03-29T04:56:14.372Z,8.53
2017-03-29T04:57:14.359Z,8.58
2017-03-29T04:58:14.347Z,8.55
2017-03-29T04:59:14.337Z,8.62
2017-03-29T05:00:14.327Z,8.66
2017-03-29T05:01:14.321Z,8.7
2017-03-29T05:02:14.308Z,8.68
2017-03-29T05:03:14.302Z,8.68
2017-03-29T05:04:14.290Z,8.83
2017-03-29T05:05:14.281Z,8.8
2017-03-29T05:06:14.274Z,8.92
2017-03-29T05:07:14.265Z,8.99
2017-03-29T05:08:13.949Z,9.02
2017-03-29T05:09:14.244Z,9.17
2017-03-29T05:10:13.929Z,9.2
2017-03-29T05:11:14.226Z,9.13
2017-03-29T05:12:14.225Z,9.38
2017-03-29T05:13:14.209Z,9.32
2017-03-29T05:14:14.198Z,9.36
2017-03-29T05:15:14.189Z,9.47
2017-03-29T05:16:13.878Z,9.51
2017-03-29T05:17:13.867Z,9.61
2017-03-29T05:18:14.164Z,9.64
2017-03-29T05:19:14.152Z,9.72
2017-03-29T05:20:14.142Z,9.69
2017-03-29T05:21:14.134Z,9.71
2017-03-29T05:22:14.127Z,9.76
2017-03-29T05:23:14.117Z,9.79
2017-03-29T05:24:14.108Z,9.81
2017-03-29T05:25:14.100Z,9.86
2017-03-29T05:26:13.790Z,9.84
2017-03-29T05:27:14.083Z,9.99
2017-03-29T05:28:14.073Z,10.04
2017-03-29T05:29:14.065Z,9.9
2017-03-29T05:30:14.063Z,10.05
2017-03-29T05:31:14.052Z,10.11
2017-03-29T05:32:14.039Z,10.07
2017-03-29T05:33:14.033Z,10.26
2017-03-29T05:34:14.025Z,10.2
2017-03-29T05:35:14.012Z,10.23
2017-03-29T05:36:14.006Z,10.3
2017-03-29T05:37:14.001Z,10.42
2017-03-29T05:38:14.018Z,10.38
2017-03-29T05:39:13.980Z,10.47
2017-03-29T05:40:13.974Z,10.47
2017-03-29T05:41:13.969Z,10.51
2017-03-29T05:42:13.959Z,10.53
2017-03-29T05:43:13.950Z,10.53
2017-03-29T05:44:13.940Z,10.66
2017-03-29T05:45:13.936Z,10.63
2017-03-29T05:46:13.924Z,10.63
2017-03-29T05:47:13.918Z,10.74
2017-03-29T05:48:13.604Z,10.71
2017-03-29T05:49:13.901Z,10.71
2017-03-29T05:50:13.588Z,10.84
2017-03-29T05:51:13.888Z,10.85
2017-03-29T05:52:13.880Z,10.99
2017-03-29T05:53:13.868Z,10.92
2017-03-29T05:54:13.557Z,10.92
2017-03-29T05:55:13.852Z,11.07
2017-03-29T05:56:13.845Z,11.1
2017-03-29T05:57:13.837Z,11.19
2017-03-29T05:58:13.828Z,11.29
2017-03-29T05:59:13.822Z,11.27
2017-03-29T06:00:13.812Z,11.24
2017-03-29T06:01:13.812Z,11.25
2017-03-29T06:02:13.800Z,11.37
2017-03-29T06:03:13.793Z,11.35
2017-03-29T06:04:13.789Z,11.39
2017-03-29T06:05:13.777Z,11.51
2017-03-29T06:06:13.769Z,11.49
2017-03-29T06:07:13.761Z,11.55
2017-03-29T06:08:13.755Z,11.62
2017-03-29T06:09:13.746Z,11.61
2017-03-29T06:10:13.436Z,11.67
2017-03-29T06:11:13.734Z,11.75
2017-03-29T06:12:13.421Z,11.69
2017-03-29T06:13:13.717Z,11.8
2017-03-29T06:14:13.709Z,11.86
2017-03-29T06:15:13.703Z,11.88
2017-03-29T06:16:13.695Z,11.88
2017-03-29T06:17:13.690Z,11.94
2017-03-29T06:18:13.681Z,12.1
2017-03-29T06:19:13.674Z,12.05
2017-03-29T06:20:13.666Z,12.2
2017-03-29T06:21:13.660Z,12.16
2017-03-29T06:22:13.654Z,12.23
2017-03-29T06:23:13.647Z,12.27
2017-03-29T06:24:13.664Z,12.38
2017-03-29T06:25:13.640Z,12.46
2017-03-29T06:26:13.326Z,12.46
2017-03-29T06:27:13.623Z,12.49
2017-03-29T06:28:13.618Z,12.56
2017-03-29T06:29:13.607Z,12.54
2017-03-29T06:30:13.599Z,12.65
2017-03-29T06:31:13.593Z,12.71
2017-03-29T06:32:13.585Z,12.67
2017-03-29T06:33:13.577Z,12.72
2017-03-29T06:34:13.572Z,12.79
2017-03-29T06:35:13.569Z,12.86
2017-03-29T06:36:13.564Z,12.83
2017-03-29T06:37:13.554Z,12.82
2017-03-29T06:38:13.547Z,12.96
2017-03-29T06:39:13.542Z,13
2017-03-29T06:40:13.534Z,13.03
2017-03-29T06:41:13.529Z,13.01
2017-03-29T06:42:13.523Z,12.92
2017-03-29T06:43:13.513Z,12.92
2017-03-29T06:44:13.510Z,12.97
2017-03-29T06:45:13.506Z,12.92
2017-03-29T06:46:13.195Z,13.01
2017-03-29T06:47:13.495Z,12.97
2017-03-29T06:48:13.485Z,12.95
2017-03-29T06:49:13.481Z,12.92
2017-03-29T06:50:13.478Z,12.87
2017-03-29T06:51:13.469Z,12.97
2017-03-29T06:52:13.464Z,13.14
2017-03-29T06:53:13.456Z,13.39
2017-03-29T06:54:13.351Z,13.66
2017-03-29T06:55:14.053Z,13.92
2017-03-29T06:56:13.442Z,14.22
2017-03-29T06:58:13.436Z,14.91
2017-03-29T06:59:13.429Z,15.34
2017-03-29T07:00:13.424Z,15.59
2017-03-29T07:01:13.421Z,16
2017-03-29T07:02:13.113Z,16.35
2017-03-29T07:03:13.413Z,16.71
2017-03-29T07:04:13.616Z,16.98
2017-03-29T07:05:13.662Z,17.3
2017-03-29T07:06:13.101Z,17.64
2017-03-29T07:07:13.406Z,18.02
2017-03-29T07:08:13.409Z,18.33
2017-03-29T07:09:13.404Z,18.57
2017-03-29T07:10:13.407Z,18.87
2017-03-29T07:11:13.412Z,19.18
2017-03-29T07:12:13.405Z,19.48
2017-03-29T07:13:13.409Z,19.78
2017-03-29T07:14:13.408Z,20.23
2017-03-29T07:15:13.410Z,20.42
2017-03-29T07:16:13.468Z,20.74
2017-03-29T07:17:13.414Z,21.06
2017-03-29T07:18:13.419Z,21.35
2017-03-29T07:19:13.426Z,21.58
2017-03-29T07:20:13.424Z,21.84
2017-03-29T07:21:13.428Z,22.09
2017-03-29T07:22:13.433Z,22.43
2017-03-29T07:23:13.434Z,22.51
2017-03-29T07:24:13.141Z,22.6
2017-03-29T07:25:13.449Z,22.72
2017-03-29T07:26:13.453Z,22.83
2017-03-29T07:27:13.464Z,22.83
2017-03-29T07:28:13.472Z,23.12
2017-03-29T07:29:13.471Z,23.2
2017-03-29T07:30:13.482Z,23.39
2017-03-29T07:31:13.489Z,23.47
2017-03-29T07:32:13.491Z,23.57
2017-03-29T07:33:13.497Z,23.69
2017-03-29T07:34:13.502Z,23.75
2017-03-29T07:35:13.510Z,23.79
2017-03-29T07:36:13.516Z,23.85
2017-03-29T07:37:13.523Z,23.85
2017-03-29T07:38:13.528Z,23.8
2017-03-29T07:39:13.537Z,23.75
2017-03-29T07:40:13.545Z,23.73
2017-03-29T07:41:13.547Z,23.65
2017-03-29T07:42:13.559Z,23.53
2017-03-29T07:43:13.565Z,23.47
2017-03-29T07:44:13.567Z,23.33
2017-03-29T07:45:13.572Z,23.04
2017-03-29T07:46:13.578Z,22.97
2017-03-29T07:47:13.583Z,22.86
2017-03-29T07:48:13.590Z,22.9
2017-03-29T07:49:13.292Z,22.83
2017-03-29T07:50:13.603Z,22.73
2017-03-29T07:51:13.605Z,22.75
2017-03-29T07:52:13.308Z,22.75
2017-03-29T07:53:13.321Z,22.73
2017-03-29T07:54:13.651Z,22.8
2017-03-29T07:55:13.629Z,22.79
2017-03-29T07:56:13.630Z,22.88
2017-03-29T07:57:13.638Z,22.85
2017-03-29T07:58:13.641Z,22.92
2017-03-29T07:59:13.647Z,22.83
2017-03-29T08:00:13.680Z,22.83
2017-03-29T08:01:13.653Z,22.9
2017-03-29T08:02:13.659Z,22.83
2017-03-29T08:03:13.663Z,22.86
2017-03-29T08:04:13.668Z,22.97
2017-03-29T08:05:13.674Z,22.92
2017-03-29T08:06:13.679Z,23.01
2017-03-29T08:07:13.682Z,23.04
2017-03-29T08:08:13.691Z,23.04
2017-03-29T08:09:13.691Z,23.1
2017-03-29T08:10:13.395Z,23.01
2017-03-29T08:11:13.704Z,22.95
2017-03-29T08:12:13.707Z,22.91
2017-03-29T08:13:13.716Z,22.88
2017-03-29T08:14:13.718Z,22.91
2017-03-29T08:15:13.722Z,22.82
2017-03-29T08:16:13.729Z,22.8
2017-03-29T08:17:13.431Z,22.76
2017-03-29T08:18:13.738Z,22.68
2017-03-29T08:19:13.739Z,22.7
2017-03-29T08:20:13.746Z,22.61
2017-03-29T08:21:13.750Z,22.77
2017-03-29T08:22:13.786Z,22.68
2017-03-29T08:23:13.757Z,22.67
2017-03-29T08:24:13.762Z,22.55
2017-03-29T08:25:13.462Z,22.49
2017-03-29T08:26:13.773Z,22.49
2017-03-29T08:27:13.773Z,22.39
2017-03-29T08:28:13.780Z,22.25
2017-03-29T08:29:13.780Z,22.15
2017-03-29T08:30:13.782Z,22.06
2017-03-29T08:31:13.784Z,21.94
2017-03-29T08:32:13.787Z,21.84
2017-03-29T08:33:13.791Z,21.86
2017-03-29T08:34:13.792Z,21.68
2017-03-29T08:35:13.798Z,21.61
2017-03-29T08:36:13.797Z,21.34
2017-03-29T08:37:13.798Z,21.32
2017-03-29T08:38:13.801Z,21.14
2017-03-29T08:39:13.801Z,21.14
2017-03-29T08:40:13.702Z,21.07
2017-03-29T08:41:13.811Z,21.12
2017-03-29T08:42:13.504Z,20.98
2017-03-29T08:43:13.809Z,20.98
2017-03-29T08:44:13.811Z,20.89
2017-03-29T08:45:13.508Z,20.7
2017-03-29T08:46:13.509Z,20.54
2017-03-29T08:47:13.812Z,20.35
2017-03-29T08:48:13.818Z,20.35
2017-03-29T08:49:13.513Z,20.31
2017-03-29T08:50:13.821Z,20.29
2017-03-29T08:51:13.821Z,20.32
2017-03-29T08:52:13.514Z,20.32
2017-03-29T08:53:13.818Z,20.24
2017-03-29T08:54:13.816Z,20.24
2017-03-29T08:55:13.818Z,20.21
2017-03-29T08:56:13.818Z,20.28
2017-03-29T08:57:13.817Z,20.35
2017-03-29T08:58:13.817Z,20.41
2017-03-29T08:59:13.820Z,20.55
2017-03-29T09:00:13.817Z,20.51
2017-03-29T09:01:13.820Z,20.54
2017-03-29T09:02:13.819Z,20.51
2017-03-29T09:03:13.819Z,20.61
2017-03-29T09:04:13.818Z,20.69
2017-03-29T09:05:13.819Z,20.76
2017-03-29T09:06:13.821Z,20.89
2017-03-29T09:07:13.826Z,20.97
2017-03-29T09:08:13.820Z,21.06
2017-03-29T09:09:13.822Z,21.17
2017-03-29T09:10:13.820Z,21.28
2017-03-29T09:11:13.823Z,21.25
2017-03-29T09:12:13.821Z,21.28
2017-03-29T09:13:13.822Z,21.35
2017-03-29T09:14:13.825Z,21.47
2017-03-29T09:15:13.824Z,21.54
2017-03-29T09:16:13.826Z,21.71
2017-03-29T09:17:13.829Z,21.86
2017-03-29T09:18:13.832Z,21.9
2017-03-29T09:19:13.832Z,22
2017-03-29T09:20:13.832Z,22.14
2017-03-29T09:21:13.833Z,22.09
2017-03-29T09:22:13.833Z,22.15
2017-03-29T09:23:13.840Z,22.15
2017-03-29T09:24:13.835Z,22.14
2017-03-29T09:25:13.839Z,22.1
2017-03-29T09:26:13.539Z,22.07
2017-03-29T09:27:13.843Z,22.05
2017-03-29T09:28:13.844Z,22.02
2017-03-29T09:29:13.847Z,22.03
2017-03-29T09:30:13.846Z,21.94
2017-03-29T09:31:13.849Z,21.9
2017-03-29T09:32:13.856Z,21.86
2017-03-29T09:33:13.849Z,21.77
2017-03-29T09:34:13.854Z,21.84
2017-03-29T09:35:13.854Z,21.86
2017-03-29T09:36:13.877Z,21.86
2017-03-29T09:37:13.856Z,21.79
2017-03-29T09:38:13.860Z,21.71
2017-03-29T09:39:13.863Z,21.56
2017-03-29T09:40:13.862Z,21.46
2017-03-29T09:41:13.862Z,21.37
2017-03-29T09:42:13.869Z,21.37
2017-03-29T09:43:13.864Z,21.21
2017-03-29T09:44:13.862Z,21.16
2017-03-29T09:45:13.562Z,21.12
2017-03-29T09:46:13.868Z,21.01
2017-03-29T09:47:13.865Z,21.03
2017-03-29T09:48:13.562Z,20.95
2017-03-29T09:49:13.868Z,20.89
2017-03-29T09:50:13.867Z,20.82
2017-03-29T09:51:13.877Z,20.64
2017-03-29T09:52:13.871Z,20.52
2017-03-29T09:53:13.884Z,20.52
2017-03-29T09:54:13.869Z,20.38
2017-03-29T09:55:13.867Z,20.36
2017-03-29T09:56:13.565Z,20.36
2017-03-29T09:57:13.870Z,20.39
2017-03-29T09:58:13.564Z,20.31
2017-03-29T09:59:13.868Z,20.31
2017-03-29T10:00:14.226Z,20.42
2017-03-29T10:01:13.870Z,20.39
2017-03-29T10:02:13.871Z,20.35
2017-03-29T10:03:13.867Z,20.38
2017-03-29T10:04:13.870Z,20.41
2017-03-29T10:05:13.865Z,20.41
2017-03-29T10:06:13.567Z,20.39
2017-03-29T10:07:13.868Z,20.35
2017-03-29T10:08:13.868Z,20.38
2017-03-29T10:09:13.873Z,20.41
2017-03-29T10:10:13.876Z,20.51
2017-03-29T10:11:13.869Z,20.51
2017-03-29T10:12:13.895Z,20.51
2017-03-29T10:13:13.865Z,20.54
2017-03-29T10:14:13.866Z,20.43
2017-03-29T10:15:13.869Z,20.42
2017-03-29T10:16:13.866Z,20.41
2017-03-29T10:17:13.561Z,20.29
2017-03-29T10:18:13.865Z,20.32
2017-03-29T10:19:13.863Z,20.21
2017-03-29T10:20:13.862Z,20.26
2017-03-29T10:21:13.864Z,20.16
2017-03-29T10:22:13.868Z,20.05
2017-03-29T10:23:13.863Z,20.05
2017-03-29T10:24:13.862Z,19.92
2017-03-29T10:25:13.867Z,19.91
2017-03-29T10:26:13.863Z,19.83
2017-03-29T10:27:13.860Z,19.84
2017-03-29T10:28:13.864Z,19.74
2017-03-29T10:29:13.859Z,19.77
2017-03-29T10:30:13.859Z,19.66
2017-03-29T10:31:13.862Z,19.55
2017-03-29T10:32:13.859Z,19.36
2017-03-29T10:33:13.857Z,19.37
2017-03-29T10:34:13.858Z,19.32
2017-03-29T10:35:13.853Z,19.18
2017-03-29T10:36:13.549Z,19.13
2017-03-29T10:37:13.850Z,19.06
2017-03-29T10:38:13.849Z,19
2017-03-29T10:39:13.847Z,18.95
2017-03-29T10:40:13.849Z,18.82
2017-03-29T10:41:13.847Z,18.78
2017-03-29T10:42:13.843Z,18.65
2017-03-29T10:43:13.842Z,18.57
2017-03-29T10:44:13.536Z,18.52
2017-03-29T10:45:13.842Z,18.51
2017-03-29T10:46:13.838Z,18.39
2017-03-29T10:47:13.834Z,18.33
2017-03-29T10:48:13.832Z,18.39
2017-03-29T10:49:13.830Z,18.35
2017-03-29T10:50:13.831Z,18.26
2017-03-29T10:51:13.523Z,18.27
2017-03-29T10:52:13.825Z,18.14
2017-03-29T10:53:13.518Z,18.21
2017-03-29T10:54:13.823Z,18.18
2017-03-29T10:55:13.822Z,18.23
2017-03-29T10:56:13.512Z,18.14
2017-03-29T10:57:13.815Z,18.17
2017-03-29T10:58:13.811Z,18.12
2017-03-29T10:59:13.818Z,18.05
2017-03-29T11:00:13.809Z,17.97
2017-03-29T11:01:13.805Z,17.92
2017-03-29T11:02:13.806Z,17.84
2017-03-29T11:03:13.806Z,17.84
2017-03-29T11:04:13.497Z,17.9
2017-03-29T11:05:13.800Z,17.79
2017-03-29T11:06:13.795Z,17.82
2017-03-29T11:07:13.818Z,17.89
2017-03-29T11:08:13.785Z,17.89
2017-03-29T11:09:13.784Z,17.86
2017-03-29T11:10:13.479Z,17.81
2017-03-29T11:11:13.689Z,17.84
2017-03-29T11:12:13.475Z,17.95
2017-03-29T11:13:13.471Z,18
2017-03-29T11:14:13.774Z,17.9
2017-03-29T11:15:13.768Z,17.9
2017-03-29T11:16:13.767Z,17.89
2017-03-29T11:17:13.767Z,17.79
2017-03-29T11:18:13.761Z,17.86
2017-03-29T11:19:13.761Z,17.75
2017-03-29T11:20:13.757Z,17.66
2017-03-29T11:21:13.756Z,17.64
2017-03-29T11:22:13.755Z,17.51
2017-03-29T11:23:13.748Z,17.51
2017-03-29T11:24:13.745Z,17.48
2017-03-29T11:25:13.444Z,17.4
2017-03-29T11:26:13.770Z,17.38
2017-03-29T11:27:13.738Z,17.54
2017-03-29T11:28:13.737Z,17.46
2017-03-29T11:29:13.731Z,17.63
2017-03-29T11:30:13.728Z,17.7
2017-03-29T11:31:13.726Z,17.74
2017-03-29T11:32:13.727Z,17.92
2017-03-29T11:33:13.719Z,17.92
2017-03-29T11:34:13.719Z,17.87
2017-03-29T11:35:13.717Z,17.9
2017-03-29T11:36:14.057Z,17.87
2017-03-29T11:37:13.709Z,17.87
2017-03-29T11:38:13.403Z,17.82
2017-03-29T11:39:13.706Z,17.75
2017-03-29T11:40:13.702Z,17.79
2017-03-29T11:41:13.698Z,17.75
2017-03-29T11:42:13.711Z,17.7
2017-03-29T11:43:13.693Z,17.64
2017-03-29T11:44:13.696Z,17.52
2017-03-29T11:45:13.686Z,17.58
2017-03-29T11:46:13.685Z,17.46
2017-03-29T11:47:13.682Z,17.41
2017-03-29T11:48:13.388Z,17.4
2017-03-29T11:49:13.678Z,17.36
2017-03-29T11:50:13.678Z,17.34
2017-03-29T11:51:13.671Z,17.4
2017-03-29T11:52:13.670Z,17.43
2017-03-29T11:53:13.671Z,17.52
2017-03-29T11:54:13.663Z,17.54
2017-03-29T11:55:13.661Z,17.56
2017-03-29T11:56:13.658Z,17.63
2017-03-29T11:57:13.657Z,17.63
2017-03-29T11:58:13.653Z,17.78
2017-03-29T11:59:13.653Z,17.77
2017-03-29T12:00:13.650Z,17.77
2017-03-29T12:01:14.007Z,17.81
2017-03-29T12:02:13.650Z,17.87
2017-03-29T12:03:13.639Z,17.75
2017-03-29T12:04:13.338Z,17.59
2017-03-29T12:05:13.638Z,17.55
2017-03-29T12:06:13.631Z,17.44
2017-03-29T12:07:13.630Z,17.4
2017-03-29T12:08:13.633Z,17.21
2017-03-29T12:09:13.322Z,17.19
2017-03-29T12:10:13.619Z,16.98
2017-03-29T12:11:13.617Z,16.88
2017-03-29T12:12:13.617Z,16.85
2017-03-29T12:13:13.311Z,16.64
2017-03-29T12:14:13.611Z,16.57
2017-03-29T12:15:13.607Z,16.45
2017-03-29T12:16:13.607Z,16.45
2017-03-29T12:17:13.601Z,16.33
2017-03-29T12:18:13.297Z,16.3
2017-03-29T12:19:13.594Z,16.34
2017-03-29T12:20:13.591Z,16.33
2017-03-29T12:21:13.587Z,16.24
2017-03-29T12:22:13.614Z,16.23
2017-03-29T12:23:13.580Z,16.35
2017-03-29T12:24:13.578Z,16.17
2017-03-29T12:25:13.574Z,16.2
2017-03-29T12:26:13.572Z,16.33
2017-03-29T12:27:13.570Z,16.39
2017-03-29T12:28:13.567Z,16.21
2017-03-29T12:29:13.558Z,16.2
2017-03-29T12:30:13.561Z,16.15
2017-03-29T12:31:13.554Z,16.12
2017-03-29T12:32:13.549Z,16.14
2017-03-29T12:33:13.547Z,16.11
2017-03-29T12:34:13.546Z,16.05
2017-03-29T12:35:13.542Z,16.12
2017-03-29T12:36:13.534Z,16.14
2017-03-29T12:37:13.532Z,16.08
2017-03-29T12:38:13.525Z,15.94
2017-03-29T12:39:13.523Z,16.05
2017-03-29T12:40:13.520Z,16.09
2017-03-29T12:41:13.515Z,15.96
2017-03-29T12:42:13.511Z,15.96
2017-03-29T12:43:13.507Z,16.09
2017-03-29T12:44:13.504Z,15.96
2017-03-29T12:45:13.500Z,15.97
2017-03-29T12:46:13.531Z,16.07
2017-03-29T12:47:13.492Z,15.94
2017-03-29T12:48:13.486Z,16.05
2017-03-29T12:49:13.487Z,16.01
2017-03-29T12:50:13.480Z,16.04
2017-03-29T12:51:13.480Z,16.07
2017-03-29T12:52:13.477Z,16.04
2017-03-29T12:53:13.168Z,15.97
2017-03-29T12:54:13.164Z,16
2017-03-29T12:55:13.159Z,15.96
2017-03-29T12:56:13.485Z,16.05
2017-03-29T12:57:13.453Z,16
2017-03-29T12:58:13.450Z,16.02
2017-03-29T12:59:13.445Z,16.02
2017-03-29T13:00:13.446Z,15.97
2017-03-29T13:01:13.441Z,16.07
2017-03-29T13:02:13.439Z,15.97
2017-03-29T13:03:13.430Z,16
2017-03-29T13:04:13.428Z,15.94
2017-03-29T13:05:13.425Z,16
2017-03-29T13:06:13.422Z,16.01
2017-03-29T13:07:13.420Z,16.09